Terminal Aerodrome Forecast
Issued by NWS Wilmington, NC

Home | Current Version | Previous Version | Text Only | Print | Product List | Glossary On
Versions: 1 2 3 4 5 6 7 8 9 10 11 12 13 14 15 16 17 18 19 20 21 22 23 24 25 26 27 28 29 30 31 32 33
000
FTUS42 KILM 222300
TAFFLO
TAF
KFLO 222320Z 2300/2324 18003KT P6SM VCSH SCT014 BKN150
     FM230600 24003KT 4SM BR SCT020 SCT040 OVC150
     FM230800 00000KT 1SM BR BKN012
     FM231400 22006KT P6SM BKN016 OVC120
     FM231900 21007KT P6SM VCTS BKN035CB=

USA.gov is the U.S. government's official web portal to all federal, state and local government web resources and services.